createdAt,value
2023-10-10T05:31:21.459Z,68.09
2023-10-10T05:33:49.795Z,67.80
2023-10-10T05:36:20.153Z,68.14
2023-10-10T05:38:49.636Z,67.79
2023-10-10T05:41:21.065Z,68.23
2023-10-10T05:43:51.339Z,68.51
2023-10-10T05:46:21.379Z,68.24
2023-10-10T05:48:49.437Z,68.12
2023-10-10T05:51:17.170Z,68.82
2023-10-10T05:53:48.072Z,68.81
2023-10-10T05:56:17.713Z,68.93
2023-10-10T05:58:46.392Z,69.36
2023-10-10T06:01:15.891Z,69.10
2023-10-10T06:03:50.761Z,69.55
2023-10-10T06:06:22.535Z,69.58
2023-10-10T06:08:59.370Z,70.15
2023-10-10T06:11:30.923Z,70.84
2023-10-10T06:13:59.110Z,71.01
2023-10-10T06:16:26.874Z,71.14
2023-10-10T06:18:54.865Z,71.11
2023-10-10T06:21:23.844Z,71.27
2023-10-10T06:23:51.929Z,71.34
2023-10-10T06:26:22.744Z,71.04
2023-10-10T06:28:54.506Z,70.64
2023-10-10T06:31:33.301Z,71.06
2023-10-10T06:34:01.447Z,70.17
2023-10-10T06:36:38.751Z,70.69
2023-10-10T06:39:20.720Z,70.78
2023-10-10T06:41:52.479Z,71.27
2023-10-10T06:44:34.673Z,71.10
2023-10-10T06:47:12.356Z,71.11
2023-10-10T06:49:57.111Z,70.85
2023-10-10T06:52:29.114Z,71.01
2023-10-10T06:55:06.598Z,70.94
2023-10-10T06:57:43.790Z,71.57
2023-10-10T07:00:33.549Z,72.40
2023-10-10T07:03:01.485Z,72.69
2023-10-10T07:05:32.155Z,72.99
2023-10-10T07:08:02.017Z,72.78
2023-10-10T07:10:36.933Z,72.25
2023-10-10T07:13:11.757Z,72.04
2023-10-10T07:15:41.207Z,71.78
2023-10-10T07:18:16.518Z,72.03
2023-10-10T07:21:05.938Z,72.07
2023-10-10T07:24:03.223Z,72.20
2023-10-10T07:26:32.595Z,72.55
2023-10-10T07:29:22.923Z,71.71
2023-10-10T07:31:54.330Z,71.95
2023-10-10T07:34:35.884Z,71.21
2023-10-10T07:37:09.055Z,70.72
2023-10-10T07:39:56.365Z,70.62
2023-10-10T07:42:28.545Z,70.66
2023-10-10T07:45:04.090Z,70.10
2023-10-10T07:47:33.385Z,69.22
2023-10-10T07:50:03.069Z,69.21
2023-10-10T07:52:36.703Z,69.27
2023-10-10T07:55:07.402Z,68.86
2023-10-10T07:57:56.907Z,69.16
2023-10-10T08:00:35.792Z,68.63
2023-10-10T08:03:04.557Z,68.11
2023-10-10T08:05:35.386Z,68.39
2023-10-10T08:08:05.716Z,68.56
2023-10-10T08:10:40.239Z,68.57
2023-10-10T08:13:11.280Z,68.62
2023-10-10T08:15:51.819Z,68.47
2023-10-10T08:18:40.914Z,68.73
2023-10-10T08:21:13.053Z,68.08
2023-10-10T08:23:47.413Z,67.47
2023-10-10T08:26:20.740Z,67.70
2023-10-10T08:28:52.207Z,66.90
2023-10-10T08:31:19.925Z,66.15
2023-10-10T08:33:49.088Z,65.32
2023-10-10T08:36:24.587Z,65.83
2023-10-10T08:39:12.266Z,65.54
2023-10-10T08:41:42.905Z,65.62
2023-10-10T08:44:11.786Z,65.18
2023-10-10T08:46:48.280Z,64.06
2023-10-10T08:49:17.118Z,63.31
2023-10-10T08:51:46.473Z,61.92
2023-10-10T08:54:17.745Z,59.75
2023-10-10T08:57:01.065Z,58.38
2023-10-10T08:59:31.018Z,57.30
2023-10-10T09:02:10.904Z,56.37
2023-10-10T09:04:38.536Z,54.85
2023-10-10T09:07:12.339Z,56.26
2023-10-10T09:09:41.249Z,56.91
2023-10-10T09:12:17.077Z,57.36
2023-10-10T09:14:51.282Z,57.68
2023-10-10T09:17:30.541Z,57.84
2023-10-10T09:19:59.237Z,57.52
2023-10-10T09:22:31.463Z,59.72
2023-10-10T09:25:00.853Z,59.69
2023-10-10T09:27:37.354Z,60.13
2023-10-10T09:30:11.438Z,59.34
2023-10-10T09:32:43.852Z,60.36
2023-10-10T09:35:12.116Z,59.99
2023-10-10T09:37:43.563Z,60.04
2023-10-10T09:40:20.251Z,58.48
2023-10-10T09:43:04.896Z,58.09
2023-10-10T09:45:52.226Z,58.35
2023-10-10T09:48:29.396Z,57.67
2023-10-10T09:51:09.570Z,58.13
2023-10-10T09:53:41.262Z,58.39
2023-10-10T09:56:10.970Z,58.86
2023-10-10T09:58:43.922Z,59.19
2023-10-10T10:01:23.628Z,59.04
2023-10-10T10:04:01.056Z,59.19
2023-10-10T10:06:52.600Z,58.93
2023-10-10T10:09:47.814Z,58.96
2023-10-10T10:12:53.468Z,59.17
2023-10-10T10:15:51.398Z,59.31
2023-10-10T10:18:30.093Z,58.06
2023-10-10T10:21:18.042Z,58.16
2023-10-10T10:23:56.241Z,57.87
2023-10-10T10:26:33.863Z,58.14
2023-10-10T10:29:16.834Z,57.40
2023-10-10T10:31:59.253Z,57.12
2023-10-10T10:34:46.850Z,57.43
2023-10-10T10:37:24.547Z,55.85
2023-10-10T10:40:14.984Z,55.17
2023-10-10T10:42:48.074Z,55.33
2023-10-10T10:45:27.886Z,55.65
2023-10-10T10:48:01.570Z,56.50
2023-10-10T10:50:46.082Z,55.81
2023-10-10T10:53:35.097Z,55.01
2023-10-10T10:56:28.166Z,53.78
2023-10-10T10:59:14.842Z,54.06
2023-10-10T11:01:48.914Z,52.86
2023-10-10T11:04:44.220Z,52.78
2023-10-10T11:07:17.666Z,53.24
2023-10-10T11:09:54.212Z,53.55
2023-10-10T11:12:33.132Z,53.61
2023-10-10T11:15:07.547Z,51.19
2023-10-10T11:17:40.144Z,49.93
2023-10-10T11:20:31.289Z,50.20
2023-10-10T11:23:12.615Z,49.12
2023-10-10T11:25:48.019Z,48.10
2023-10-10T11:28:25.440Z,48.33
2023-10-10T11:30:55.162Z,47.50
2023-10-10T11:33:49.430Z,47.99
2023-10-10T11:36:39.311Z,48.90
2023-10-10T11:39:26.474Z,49.18
2023-10-10T11:41:54.206Z,49.20
2023-10-10T11:44:23.163Z,48.74
2023-10-10T11:47:03.895Z,48.51
2023-10-10T11:49:33.357Z,48.37
2023-10-10T11:52:02.560Z,48.39
2023-10-10T11:54:30.758Z,49.14
2023-10-10T11:57:00.817Z,48.98
2023-10-10T11:59:29.124Z,48.62
2023-10-10T12:02:08.557Z,49.13
2023-10-10T12:04:38.833Z,48.25
2023-10-10T12:07:08.037Z,48.99
2023-10-10T12:09:39.845Z,48.75
2023-10-10T12:12:07.907Z,48.88
2023-10-10T12:14:35.618Z,49.03
2023-10-10T12:17:07.016Z,48.33
2023-10-10T12:19:38.541Z,48.36
2023-10-10T12:22:12.201Z,48.54
2023-10-10T12:24:41.573Z,48.34
2023-10-10T12:27:10.156Z,48.06
2023-10-10T12:29:41.320Z,48.47
2023-10-10T12:32:17.506Z,48.75
2023-10-10T12:34:47.128Z,48.69
2023-10-10T12:37:17.861Z,48.41
2023-10-10T12:39:46.026Z,48.10
2023-10-10T12:42:14.240Z,47.99
2023-10-10T12:44:48.952Z,47.04
2023-10-10T12:47:18.854Z,46.86
2023-10-10T12:49:46.850Z,47.29
2023-10-10T12:52:18.623Z,47.94
2023-10-10T12:54:47.780Z,48.07
2023-10-10T12:57:16.005Z,47.28
2023-10-10T12:59:47.469Z,47.79
2023-10-10T13:02:17.638Z,48.56
2023-10-10T13:04:48.696Z,48.38
2023-10-10T13:07:19.268Z,48.28
2023-10-10T13:09:47.945Z,48.16
2023-10-10T13:12:33.769Z,47.83
2023-10-10T13:15:19.028Z,48.26
2023-10-10T13:17:54.874Z,47.50
2023-10-10T13:20:23.646Z,47.91
2023-10-10T13:22:52.851Z,48.03
2023-10-10T13:25:23.202Z,47.73
2023-10-10T13:27:53.541Z,47.48
2023-10-10T13:30:21.841Z,47.84
2023-10-10T13:32:49.903Z,48.00
2023-10-10T13:35:21.032Z,48.31
2023-10-10T13:37:48.925Z,48.44
2023-10-10T13:40:23.983Z,48.63
2023-10-10T13:42:51.962Z,48.89
2023-10-10T13:45:23.660Z,49.05
2023-10-10T13:47:51.929Z,49.06
2023-10-10T13:50:32.611Z,49.39
2023-10-10T13:53:01.461Z,49.09
2023-10-10T13:55:35.232Z,48.94
2023-10-10T13:58:03.136Z,48.24
2023-10-10T14:00:34.633Z,48.48
2023-10-10T14:03:05.416Z,47.86
2023-10-10T14:05:35.801Z,47.92
2023-10-10T14:08:07.412Z,47.71
2023-10-10T14:10:43.026Z,47.56
2023-10-10T14:13:27.759Z,47.98
2023-10-10T14:15:59.130Z,48.58
2023-10-10T14:18:31.168Z,48.63
2023-10-10T14:21:02.586Z,48.45
2023-10-10T14:23:36.743Z,48.54
2023-10-10T14:26:13.952Z,47.40
2023-10-10T14:28:42.999Z,47.46
2023-10-10T14:31:13.619Z,48.13
2023-10-10T14:33:41.504Z,47.76
2023-10-10T14:36:13.405Z,48.22
2023-10-10T14:38:45.821Z,48.31
2023-10-10T14:41:19.503Z,48.13
2023-10-10T14:43:49.272Z,48.81
2023-10-10T14:46:22.584Z,48.74
2023-10-10T14:48:51.268Z,49.01
2023-10-10T14:51:19.865Z,48.64
2023-10-10T14:53:53.117Z,46.74
2023-10-10T14:56:35.356Z,45.29
2023-10-10T14:59:05.057Z,44.79
2023-10-10T15:01:35.561Z,44.50
2023-10-10T15:04:05.643Z,44.34
2023-10-10T15:06:34.369Z,44.76
2023-10-10T15:09:02.026Z,44.50
2023-10-10T15:11:31.348Z,44.69
2023-10-10T15:13:59.869Z,44.73
2023-10-10T15:16:28.748Z,44.64
2023-10-10T15:18:56.570Z,44.46
2023-10-10T15:21:35.403Z,44.86
2023-10-10T15:24:08.554Z,44.74
2023-10-10T15:26:38.752Z,44.96
2023-10-10T15:29:06.525Z,45.51
2023-10-10T15:31:35.308Z,45.62
2023-10-10T15:34:03.981Z,46.13
2023-10-10T15:36:37.283Z,46.39
2023-10-10T15:39:07.661Z,46.70
2023-10-10T15:41:38.607Z,47.13
2023-10-10T15:44:09.154Z,47.31
2023-10-10T15:46:41.302Z,47.49
2023-10-10T15:49:29.617Z,47.71
2023-10-10T15:52:05.089Z,48.11
2023-10-10T15:54:35.267Z,48.27
2023-10-10T15:57:09.638Z,48.66
2023-10-10T15:59:42.939Z,48.74
2023-10-10T16:02:14.640Z,49.06
2023-10-10T16:04:44.105Z,49.34
2023-10-10T16:07:12.867Z,49.94
2023-10-10T16:09:40.788Z,50.08
2023-10-10T16:12:13.699Z,50.14
2023-10-10T16:14:41.929Z,50.06
2023-10-10T16:17:16.675Z,50.33
2023-10-10T16:19:44.978Z,51.14
2023-10-10T16:22:14.549Z,51.26
2023-10-10T16:24:42.356Z,51.80
2023-10-10T16:27:11.904Z,52.18
2023-10-10T16:29:39.646Z,52.59
2023-10-10T16:32:11.215Z,52.58
2023-10-10T16:34:44.206Z,52.84
2023-10-10T16:39:46.088Z,53.43
2023-10-10T16:42:16.340Z,53.94
2023-10-10T16:44:47.509Z,54.34
2023-10-10T16:47:18.190Z,53.79
2023-10-10T16:49:46.715Z,54.26
2023-10-10T16:52:14.344Z,54.40
2023-10-10T16:54:47.184Z,54.42
2023-10-10T16:57:16.361Z,54.63
2023-10-10T16:59:44.362Z,54.19
2023-10-10T17:02:13.112Z,53.45
2023-10-10T17:04:43.440Z,52.95
2023-10-10T17:07:12.411Z,52.80
2023-10-10T17:09:41.282Z,52.55
2023-10-10T17:12:09.590Z,52.50
2023-10-10T17:14:41.476Z,52.50
2023-10-10T17:17:09.729Z,52.27
2023-10-10T17:19:38.709Z,52.18
2023-10-10T17:22:08.835Z,52.25
2023-10-10T17:24:36.507Z,52.28
2023-10-10T17:27:10.080Z,52.01
2023-10-10T17:29:42.454Z,52.15
2023-10-10T17:32:10.516Z,52.99
2023-10-10T17:34:41.680Z,52.89
2023-10-10T17:37:12.469Z,53.26
2023-10-10T17:39:40.146Z,54.37
2023-10-10T17:42:08.798Z,54.75
2023-10-10T17:44:39.035Z,54.60
2023-10-10T17:47:09.069Z,54.53
2023-10-10T17:49:37.240Z,54.77
2023-10-10T17:52:05.318Z,55.55
2023-10-10T17:54:33.011Z,55.25
2023-10-10T17:57:00.770Z,55.77
2023-10-10T17:59:28.519Z,55.75
2023-10-10T18:01:56.196Z,55.84
2023-10-10T18:04:27.310Z,55.96
2023-10-10T18:06:55.377Z,56.52
2023-10-10T18:09:23.531Z,56.67
2023-10-10T18:11:51.372Z,57.03
2023-10-10T18:14:21.753Z,57.32
2023-10-10T18:16:50.803Z,56.75
2023-10-10T18:19:22.346Z,57.20
2023-10-10T18:21:53.917Z,57.76
2023-10-10T18:24:28.216Z,58.22
2023-10-10T18:26:56.384Z,58.32
2023-10-10T18:29:24.279Z,58.53
2023-10-10T18:31:52.837Z,58.56
2023-10-10T18:34:20.784Z,58.66
2023-10-10T18:36:48.435Z,58.41
2023-10-10T18:39:20.310Z,58.66
2023-10-10T18:41:48.181Z,60.00
2023-10-10T18:44:17.198Z,60.33
2023-10-10T18:46:47.468Z,60.17
2023-10-10T18:49:16.332Z,60.85
2023-10-10T18:51:44.493Z,60.77
2023-10-10T18:54:14.895Z,60.82
2023-10-10T18:56:43.961Z,61.08
2023-10-10T18:59:12.527Z,61.66
2023-10-10T19:01:45.403Z,61.19
2023-10-10T19:04:15.312Z,61.65
2023-10-10T19:06:43.748Z,61.68
2023-10-10T19:09:12.513Z,61.38
2023-10-10T19:11:40.776Z,61.53
2023-10-10T19:14:11.678Z,61.57
2023-10-10T19:16:39.828Z,61.62
2023-10-10T19:19:08.702Z,61.42
2023-10-10T19:21:36.929Z,61.42
2023-10-10T19:24:05.035Z,61.39
2023-10-10T19:26:34.941Z,62.33
2023-10-10T19:29:04.968Z,61.85
2023-10-10T19:31:40.761Z,61.55
2023-10-10T19:34:11.098Z,61.30
2023-10-10T19:36:39.523Z,61.15
2023-10-10T19:39:11.039Z,61.07
2023-10-10T19:41:39.781Z,61.42
2023-10-10T19:44:07.839Z,60.57
2023-10-10T19:46:41.841Z,60.59
2023-10-10T19:49:09.652Z,61.00
2023-10-10T19:51:41.846Z,61.15
2023-10-10T19:54:14.049Z,61.17
2023-10-10T19:56:43.485Z,60.96
2023-10-10T19:59:11.157Z,60.92
2023-10-10T20:01:40.343Z,60.86
2023-10-10T20:04:08.705Z,61.09
2023-10-10T20:06:36.593Z,61.40
2023-10-10T20:09:11.273Z,61.53
2023-10-10T20:11:41.165Z,61.81
2023-10-10T20:14:08.846Z,61.53
2023-10-10T20:16:36.805Z,62.00
2023-10-10T20:19:06.038Z,61.67
2023-10-10T20:21:33.752Z,61.98
2023-10-10T20:24:01.587Z,62.34
2023-10-10T20:26:29.308Z,62.35
2023-10-10T20:28:56.990Z,62.01
2023-10-10T20:31:24.862Z,62.57
2023-10-10T20:33:52.978Z,62.80
2023-10-10T20:36:24.796Z,62.15
2023-10-10T20:38:54.716Z,62.54
2023-10-10T20:41:22.977Z,62.49
2023-10-10T20:43:50.887Z,62.44
2023-10-10T20:46:22.341Z,63.53
2023-10-10T20:48:54.934Z,62.71
2023-10-10T20:51:28.301Z,62.04
2023-10-10T20:53:56.794Z,61.30
2023-10-10T20:56:24.536Z,61.99
2023-10-10T20:58:52.859Z,61.86
2023-10-10T21:01:22.531Z,61.40
2023-10-10T21:03:51.774Z,62.07
2023-10-10T21:06:19.559Z,61.95
2023-10-10T21:08:52.006Z,61.97
2023-10-10T21:11:22.675Z,61.52
2023-10-10T21:13:50.429Z,62.28
2023-10-10T21:16:18.171Z,61.75
2023-10-10T21:18:47.165Z,61.71
2023-10-10T21:21:15.638Z,61.68
2023-10-10T21:23:44.278Z,61.83
2023-10-10T21:26:16.124Z,62.08
2023-10-10T21:28:44.229Z,61.43
2023-10-10T21:31:12.642Z,61.33
2023-10-10T21:33:41.709Z,62.00
2023-10-10T21:36:10.312Z,62.53
2023-10-10T21:38:38.073Z,62.82
2023-10-10T21:41:06.563Z,63.46
2023-10-10T21:43:35.614Z,62.90
2023-10-10T21:46:06.322Z,63.61
2023-10-10T21:48:34.140Z,63.89
2023-10-10T21:51:03.761Z,63.27
2023-10-10T21:53:34.061Z,62.69
2023-10-10T21:56:01.773Z,63.22
2023-10-10T21:58:29.685Z,63.70
2023-10-10T22:00:59.714Z,64.01
2023-10-10T22:03:28.718Z,63.71
2023-10-10T22:05:56.820Z,64.26
2023-10-10T22:08:26.990Z,63.87
2023-10-10T22:10:57.757Z,63.45
2023-10-10T22:13:26.947Z,63.70
2023-10-10T22:15:54.617Z,63.74
2023-10-10T22:18:23.809Z,64.34
2023-10-10T22:20:51.584Z,64.29
2023-10-10T22:23:19.347Z,63.93
2023-10-10T22:25:47.036Z,64.16
2023-10-10T22:28:14.708Z,64.23
2023-10-10T22:30:42.421Z,64.26
2023-10-10T22:33:11.470Z,64.37
2023-10-10T22:35:41.157Z,64.29
2023-10-10T22:38:13.999Z,64.78
2023-10-10T22:40:41.929Z,65.04
2023-10-10T22:43:15.021Z,64.75
2023-10-10T22:45:45.219Z,65.57
2023-10-10T22:48:15.619Z,65.31
2023-10-10T22:50:46.747Z,64.73
2023-10-10T22:53:17.104Z,64.23
2023-10-10T22:55:45.411Z,64.74
2023-10-10T22:58:16.177Z,65.03
2023-10-10T23:00:43.876Z,65.11
2023-10-10T23:03:12.275Z,65.03
2023-10-10T23:05:43.212Z,65.47
2023-10-10T23:08:14.160Z,66.01
2023-10-10T23:10:44.347Z,65.66
2023-10-10T23:13:14.300Z,65.96
2023-10-10T23:15:42.264Z,65.63
2023-10-10T23:18:12.090Z,65.81
2023-10-10T23:20:42.491Z,65.45
2023-10-10T23:23:12.006Z,65.55
2023-10-10T23:25:41.178Z,65.81
2023-10-10T23:28:09.541Z,66.01
2023-10-10T23:30:40.199Z,66.23
2023-10-10T23:33:11.807Z,66.04
2023-10-10T23:35:40.466Z,66.37
2023-10-10T23:38:08.756Z,66.69
2023-10-10T23:40:45.358Z,66.42
2023-10-10T23:43:19.617Z,66.85
2023-10-10T23:45:49.876Z,66.88
2023-10-10T23:48:18.361Z,66.99
2023-10-10T23:50:47.154Z,66.51
2023-10-10T23:53:15.953Z,66.50
2023-10-10T23:55:47.901Z,66.47
2023-10-10T23:58:17.769Z,66.77
